Latest Weather Observations for Robe Airport

IDS60801

Issued at 3:05 pm CDT Wednesday 22 October 2014 (issued every 30 minutes, with the page automatically refreshed every 10 minutes)

About weather observations | Map of weather stations | Latest weather observations for SA | Other Formats
Station Details ID: 026105 Name: ROBE AIRFIELD Lat: -37.18 Lon: 139.81 Height: 3.0 m
Data from the previous 72 hours. | See also: Recent months at Robe Airport
Date/Time
CDT
Temp
°C
App
Temp
°C
Dew
Point
Rel
Hum
%
Delta-T
°C
Wind Press
QNH
hPa
Press
MSL
hPa
Rain
since 9 am
mm
Dir
 
Spd
km/h
Gust
km/h
Spd
kts
Gust
kts
22/03:00pm 16.9 11.8 13.2 79 2.1 S 32 41 17 22 1018.0 1018.0 0.0
22/02:30pm 17.5 12.1 13.8 79 2.1 S 35 46 19 25 1017.9 1017.9 0.0
22/02:00pm 17.1 11.2 13.6 80 2.0 S 37 48 20 26 1017.9 1017.9 0.0
22/01:30pm 18.3 13.1 14.4 78 2.2 S 35 46 19 25 1017.9 1017.9 0.0
22/01:00pm 18.8 14.0 14.7 77 2.4 S 33 44 18 24 1017.8 1017.8 0.0
22/12:30pm 18.6 13.4 14.5 77 2.4 S 35 44 19 24 1017.7 1017.7 0.0
22/12:00pm 19.2 14.5 14.2 73 2.9 S 32 39 17 21 1017.5 1017.5 0.0
22/11:30am 19.5 15.5 14.1 71 3.1 SSW 28 35 15 19 1017.4 1017.4 0.0
22/11:00am 20.8 18.8 14.9 69 3.5 S 19 24 10 13 1017.1 1017.1 0.0
22/10:30am 21.4 19.7 14.6 65 4.0 S 17 24 9 13 1017.3 1017.3 0.0
22/10:00am 23.7 22.0 12.4 49 6.5 SSW 13 20 7 11 1017.4 1017.4 0.0
22/09:30am 22.3 20.6 12.3 53 5.7 S 13 19 7 10 1016.9 1016.9 0.0
22/09:00am 21.0 19.6 12.2 57 4.9 SW 11 17 6 9 1017.3 1017.3 0.0
22/08:30am 20.2 20.7 12.9 63 4.1 SE 2 4 1 2 1016.8 1016.8 0.0
22/08:00am 17.2 16.9 11.5 69 3.1 S 4 7 2 4 1016.7 1016.7 0.0
22/07:30am 17.6 16.5 10.0 61 4.0 SSW 6 9 3 5 1016.3 1016.3 0.0
22/07:00am 15.0 14.9 10.8 76 2.2 ENE 2 7 1 4 1016.1 1016.1 0.0
22/06:30am 14.5 14.0 9.5 72 2.6 ENE 2 4 1 2 1016.2 1016.2 0.0
22/06:00am 14.1 13.1 8.7 70 2.7 ENE 4 6 2 3 1015.9 1015.9 0.0
22/05:30am 16.1 13.4 9.1 63 3.6 NE 13 15 7 8 1015.7 1015.7 0.0
22/05:00am 15.0 14.7 10.0 72 2.6 NE 2 7 1 4 1015.8 1015.8 0.0
22/04:30am 15.1 14.8 10.1 72 2.6 NNE 2 4 1 2 1016.2 1016.2 0.0
22/04:00am 14.9 14.1 9.7 71 2.7 N 4 6 2 3 1016.3 1016.3 0.0
22/03:30am 16.5 15.9 10.4 67 3.2 N 4 6 2 3 1016.4 1016.4 0.0
22/03:00am 17.0 16.0 10.4 65 3.5 NNE 6 7 3 4 1016.6 1016.6 0.0
22/02:30am 19.4 17.4 10.1 55 5.0 NNW 11 17 6 9 1017.1 1017.1 0.0
22/02:00am 19.9 17.3 9.5 51 5.5 WNW 13 28 7 15 1017.3 1017.3 0.0
22/01:30am 17.0 15.0 7.1 52 4.9 N 7 9 4 5 1017.0 1017.0 0.0
22/01:00am 18.3 16.4 6.8 47 5.7 N 6 7 3 4 1016.9 1016.9 0.0
22/12:30am 19.5 16.7 6.9 44 6.3 NNE 11 17 6 9 1017.0 1017.0 0.0
22/12:00am 19.9 17.2 7.3 44 6.4 NE 11 13 6 7 1016.8 1016.8 0.0
 
Date/Time
CDT
Temp
°C
App
Temp
°C
Dew
Point
Rel
Hum
%
Delta-T
°C
Wind Press
QNH
hPa
Press
MSL
hPa
Rain
since 9 am
mm
Dir
 
Spd
km/h
Gust
km/h
Spd
kts
Gust
kts
21/11:30pm 20.8 18.2 7.8 43 6.7 NNE 11 15 6 8 1017.0 1017.0 0.0
21/11:00pm 21.1 19.0 8.4 44 6.7 NE 9 13 5 7 1017.0 1017.0 0.0
21/10:30pm 21.6 19.6 8.8 44 6.8 NE 9 13 5 7 1017.5 1017.5 0.0
21/10:00pm 21.7 19.1 9.3 45 6.6 NE 13 15 7 8 1017.5 1017.5 0.0
21/09:30pm 21.3 19.1 9.2 46 6.4 ENE 11 17 6 9 1017.5 1017.5 0.0
21/09:00pm 21.9 19.7 9.4 45 6.7 ENE 11 13 6 7 1017.6 1017.6 0.0
21/08:30pm 24.3 22.3 8.7 37 8.4 ENE 9 13 5 7 1017.3 1017.3 0.0
21/08:00pm 24.6 23.1 9.0 37 8.4 NE 7 9 4 5 1017.2 1017.2 0.0
21/07:30pm 24.9 23.0 10.4 40 8.0 E 11 15 6 8 1017.1 1017.1 0.0
21/07:00pm 25.5 23.7 10.9 40 8.2 E 11 15 6 8 1017.2 1017.2 0.0
21/06:30pm 27.9 26.4 9.2 31 10.3 ENE 7 11 4 6 1017.3 1017.3 0.0
21/06:00pm 30.4 27.9 8.2 25 12.2 ENE 11 15 6 8 1017.4 1017.4 0.0
21/05:30pm 31.6 28.8 8.6 24 12.8 NE 13 19 7 10 1017.6 1017.6 0.0
21/05:00pm 32.0 28.5 8.9 24 12.9 NE 17 26 9 14 1017.8 1017.8 0.0
21/04:30pm 30.9 27.7 8.6 25 12.4 ENE 15 20 8 11 1017.8 1017.8 0.0
21/04:00pm 32.0 28.0 8.3 23 13.2 ENE 19 30 10 16 1018.0 1018.0 0.0
21/03:30pm 31.5 27.4 7.9 23 13.0 NE 19 28 10 15 1018.5 1018.5 0.0
21/03:00pm 31.2 27.7 8.8 25 12.5 NE 17 24 9 13 1019.0 1019.0 0.0
21/02:30pm 30.9 27.1 9.2 26 12.1 NE 19 26 10 14 1019.6 1019.6 0.0
21/02:00pm 30.3 26.8 8.7 26 12.0 NE 17 26 9 14 1020.1 1020.1 0.0
21/01:30pm 29.7 26.6 8.7 27 11.6 ENE 15 24 8 13 1020.5 1020.5 0.0
21/01:00pm 28.8 25.5 9.5 30 10.8 ENE 17 24 9 13 1021.0 1021.0 0.0
21/12:30pm 27.8 24.3 8.6 30 10.5 NE 17 24 9 13 1021.6 1021.6 0.0
21/12:00pm 27.5 24.9 10.7 35 9.5 NE 15 24 8 13 1022.0 1022.0 0.0
21/11:30am 25.9 22.5 9.3 35 9.0 NE 17 24 9 13 1022.3 1022.3 0.0
21/11:00am 23.9 20.1 9.1 39 8.0 NNE 19 26 10 14 1022.6 1022.6 0.0
21/10:30am 23.0 18.5 8.7 40 7.6 NE 22 30 12 16 1022.8 1022.8 0.0
21/10:00am 20.6 16.4 8.3 45 6.4 NE 20 32 11 17 1023.0 1023.0 0.0
21/09:30am 19.0 14.7 7.8 48 5.7 NE 20 26 11 14 1022.9 1022.9 0.0
21/09:00am 16.6 12.5 7.8 56 4.4 NE 19 26 10 14 1023.1 1023.1 0.0
21/08:30am 14.5 11.1 7.5 63 3.4 NE 15 22 8 12 1023.3 1023.3 0.0
21/08:00am 11.9 9.1 7.0 72 2.3 ENE 11 19 6 10 1023.4 1023.4 0.0
21/07:30am 11.5 9.3 6.4 71 2.4 E 7 13 4 7 1023.0 1023.0 0.0
21/07:00am 10.3 7.4 6.5 77 1.8 E 11 15 6 8 1022.7 1022.7 0.0
21/06:30am 9.8 6.9 6.3 79 1.6 E 11 17 6 9 1022.4 1022.4 0.0
21/06:00am 9.5 6.9 6.2 80 1.5 E 9 17 5 9 1022.1 1022.1 0.0
21/05:30am 9.4 7.2 6.3 81 1.4 ESE 7 15 4 8 1021.9 1021.9 0.0
21/05:00am 9.7 7.2 6.6 81 1.4 ESE 9 15 5 8 1021.9 1021.9 0.0
21/04:30am 9.3 6.1 6.7 84 1.2 E 13 17 7 9 1022.0 1022.0 0.0
21/04:00am 9.3 6.4 6.6 83 1.3 ESE 11 15 6 8 1022.3 1022.3 0.0
21/03:30am 9.7 7.2 6.4 80 1.5 SE 9 11 5 6 1022.2 1022.2 0.0
21/03:00am 9.8 7.7 6.5 80 1.5 SE 7 11 4 6 1022.5 1022.5 0.0
21/02:30am 10.2 7.3 6.7 79 1.6 SE 11 13 6 7 1022.8 1022.8 0.0
21/02:00am 10.0 7.1 6.7 80 1.5 SE 11 15 6 8 1023.1 1023.1 0.0
21/01:30am 10.3 7.5 7.0 80 1.6 ESE 11 13 6 7 1023.5 1023.5 0.0
21/01:00am 10.8 8.1 7.5 80 1.6 ESE 11 15 6 8 1024.0 1024.0 0.0
21/12:30am 11.2 8.5 7.5 78 1.8 ESE 11 15 6 8 1024.4 1024.4 0.0
21/12:00am 12.0 9.4 7.7 75 2.1 ESE 11 13 6 7 1024.6 1024.6 0.0
 
Date/Time
CDT
Temp
°C
App
Temp
°C
Dew
Point
Rel
Hum
%
Delta-T
°C
Wind Press
QNH
hPa
Press
MSL
hPa
Rain
since 9 am
mm
Dir
 
Spd
km/h
Gust
km/h
Spd
kts
Gust
kts
20/11:30pm 12.7 10.1 7.8 72 2.4 SE 11 15 6 8 1024.7 1024.7 0.0
20/11:00pm 13.5 10.5 7.9 69 2.8 SE 13 19 7 10 1024.7 1024.7 0.0
20/10:30pm 14.0 11.2 8.6 70 2.7 SE 13 19 7 10 1024.9 1024.9 0.0
20/10:00pm 14.2 11.5 9.0 71 2.6 SE 13 17 7 9 1025.0 1025.0 0.0
20/09:30pm 14.8 11.9 8.1 64 3.3 ESE 13 19 7 10 1025.2 1025.2 0.0
20/09:00pm 14.7 11.9 8.4 66 3.2 ESE 13 17 7 9 1024.9 1024.9 0.0
20/08:30pm 15.1 12.4 9.0 67 3.1 ESE 13 15 7 8 1024.5 1024.5 0.0
20/08:00pm 15.6 13.4 9.3 66 3.2 SE 11 15 6 8 1024.3 1024.3 0.0
20/07:30pm 17.1 14.4 8.8 58 4.3 ESE 13 17 7 9 1024.2 1024.2 0.0
20/07:00pm 18.6 15.8 8.6 52 5.2 ESE 13 22 7 12 1023.9 1023.9 0.0
20/06:30pm 20.1 16.2 8.8 48 5.9 ESE 19 26 10 14 1023.6 1023.6 0.0
20/06:00pm 20.8 16.1 7.8 43 6.7 ESE 22 30 12 16 1023.7 1023.7 0.0
20/05:30pm 21.5 17.0 8.4 43 6.8 ESE 22 32 12 17 1023.9 1023.9 0.0
20/05:00pm 21.8 17.4 7.6 40 7.4 SE 20 26 11 14 1024.1 1024.1 0.0
20/04:30pm 20.9 16.6 7.9 43 6.7 ESE 20 28 11 15 1024.4 1024.4 0.0
20/04:00pm 22.3 18.6 8.1 40 7.5 SE 17 26 9 14 1024.7 1024.7 0.0
20/03:30pm 22.4 18.7 8.1 40 7.5 SE 17 26 9 14 1025.0 1025.0 0.0
20/03:00pm 22.0 18.3 7.8 40 7.4 SSE 17 24 9 13 1025.3 1025.3 0.0
20/02:30pm 21.8 18.3 8.7 43 6.9 SSE 17 24 9 13 1025.8 1025.8 0.0
20/02:00pm 21.4 17.9 8.7 44 6.7 SE 17 24 9 13 1026.4 1026.4 0.0
20/01:30pm 20.1 17.1 7.8 45 6.3 ESE 13 22 7 12 1026.7 1026.7 0.0
20/01:00pm 19.7 16.2 7.4 45 6.3 E 15 24 8 13 1026.8 1026.8 0.0
20/12:30pm 19.0 15.5 7.4 47 5.8 E 15 26 8 14 1027.2 1027.2 0.0
20/12:00pm 18.6 14.5 8.0 50 5.4 ESE 19 28 10 15 1027.5 1027.5 0.0
20/11:30am 17.4 13.1 6.9 50 5.2 ESE 19 30 10 16 1028.2 1028.2 0.0
20/11:00am 16.4 11.8 6.5 52 4.8 ESE 20 30 11 16 1028.6 1028.6 0.0
20/10:30am 15.5 10.3 5.7 52 4.7 E 22 35 12 19 1028.9 1028.9 0.0
20/10:00am 14.9 9.0 5.7 54 4.4 ESE 26 37 14 20 1028.9 1028.9 0.0
20/09:30am 13.9 8.4 5.8 58 3.8 ESE 24 35 13 19 1029.2 1029.2 0.0
20/09:00am 12.4 6.1 5.6 63 3.1 ESE 28 39 15 21 1029.3 1029.3 0.0
20/08:30am 11.8 5.5 5.7 66 2.8 SE 28 43 15 23 1029.3 1029.3 0.0
20/08:00am 11.2 6.0 5.7 69 2.5 ESE 22 32 12 17 1029.2 1029.2 0.0
20/07:30am 10.2 6.1 6.2 76 1.8 SE 17 24 9 13 1029.0 1029.0 0.0
20/07:00am 8.9 6.0 6.5 85 1.1 SE 11 17 6 9 1028.8 1028.8 0.0
20/06:30am 8.1 5.1 6.2 88 0.9 SE 11 19 6 10 1028.1 1028.1 0.0
20/06:00am 8.5 5.2 6.3 86 1.0 SE 13 19 7 10 1027.4 1027.4 0.0
20/05:30am 9.1 5.1 6.7 85 1.1 SE 17 22 9 12 1027.4 1027.4 0.0
20/05:00am 9.6 5.0 6.7 82 1.4 SE 20 30 11 16 1027.3 1027.3 0.0
20/04:30am 9.6 5.1 6.9 83 1.3 SE 20 28 11 15 1027.0 1027.0 0.0
20/04:00am 9.7 5.4 6.8 82 1.4 SE 19 26 10 14 1026.9 1026.9 0.0
20/03:30am 9.9 5.6 7.2 83 1.3 SE 19 26 10 14 1026.9 1026.9 0.0
20/03:00am 10.0 5.8 7.6 85 1.1 SE 19 26 10 14 1027.1 1027.1 0.0
20/02:30am 10.4 5.8 8.2 86 1.1 SE 22 32 12 17 1027.0 1027.0 0.0
20/02:00am 10.8 5.9 8.6 86 1.1 SE 24 33 13 18 1027.1 1027.1 0.0
20/01:30am 10.9 6.1 8.8 87 1.0 SE 24 37 13 20 1027.0 1027.0 0.0
20/01:00am 11.3 6.2 9.2 87 1.0 SE 26 37 14 20 1027.1 1027.1 0.0
20/12:30am 11.5 6.8 9.4 87 1.0 SE 24 37 13 20 1027.2 1027.2 0.0
20/12:00am 11.6 7.0 9.5 87 1.1 SE 24 37 13 20 1027.2 1027.2 0.0
 
Date/Time
CDT
Temp
°C
App
Temp
°C
Dew
Point
Rel
Hum
%
Delta-T
°C
Wind Press
QNH
hPa
Press
MSL
hPa
Rain
since 9 am
mm
Dir
 
Spd
km/h
Gust
km/h
Spd
kts
Gust
kts
19/11:30pm 11.8 7.1 9.4 85 1.2 SE 24 37 13 20 1027.3 1027.3 0.0
19/11:00pm 12.1 7.0 9.1 82 1.5 SE 26 39 14 21 1027.4 1027.4 0.0
19/10:30pm 12.2 7.2 9.4 83 1.4 SE 26 39 14 21 1027.0 1027.0 0.0
19/10:00pm 12.3 7.3 9.7 84 1.3 SE 26 39 14 21 1027.1 1027.1 0.0
19/09:30pm 12.4 8.7 10.1 86 1.2 SE 20 35 11 19 1026.9 1026.9 0.0
19/09:00pm 13.0 8.1 10.0 82 1.5 SE 26 39 14 21 1026.9 1026.9 0.0
19/08:30pm 13.3 8.1 10.3 82 1.5 SSE 28 46 15 25 1026.6 1026.6 0.0
19/08:00pm 13.3 7.7 10.1 81 1.7 SSE 30 43 16 23 1026.1 1026.1 0.0
19/07:30pm 13.4 8.1 10.0 80 1.7 SSE 28 43 15 23 1025.5 1025.5 0.0
19/07:15pm 13.5 7.9 10.1 80 1.8 SSE 30 50 16 27 1025.4 1025.4 0.0
19/07:00pm 13.9 8.0 10.5 80 1.8 SSE 32 44 17 24 1025.4 1025.4 0.0
19/06:30pm 14.4 9.0 10.8 79 1.9 SSE 30 43 16 23 1024.6 1024.6 0.0
19/06:00pm 15.3 10.3 11.1 76 2.2 SSE 28 39 15 21 1024.3 1024.3 0.0
19/05:30pm 15.3 10.3 11.1 76 2.2 SSE 28 41 15 22 1024.0 1024.0 0.0
19/05:00pm 15.5 11.0 11.5 77 2.2 SSE 26 37 14 20 1023.7 1023.7 0.0
19/04:30pm 15.3 10.8 11.5 78 2.0 SSE 26 37 14 20 1023.6 1023.6 0.0
19/04:00pm 15.3 9.8 11.9 80 1.8 S 32 44 17 24 1024.0 1024.0 0.0
19/03:30pm 15.8 10.0 11.6 76 2.3 S 33 46 18 25 1023.4 1023.4 0.0

Other Formats:

Comma delimited format used in spreadsheet applications
http://www.bom.gov.au/fwo/IDS60801/IDS60801.95816.axf

JavaScript Object Notation format (JSON) in row-major order
http://www.bom.gov.au/fwo/IDS60801/IDS60801.95816.json